CheckWX is a tool to help pilots better visualize weather data.  It is not intended as a substitute for an official pre-flight weather briefing.

12:19:22 UTC

KAFP METAR
Anson County - Jeff Cloud Field Airport
Wadesboro, North Carolina, USA
Current

39 mins ago

KAFP 221140Z AUTO 04004KT 5SM DZ OVC033 09/08 A3024 RMK AO2 P0001 T00890078
Observed
Feb-22 @ 11:40 UTC
Wind
  • 040° at 4 KTS
Visibility
5 SM
Flight Rules
MVFR
Conditions
Drizzle
Cloud Levels
  • Overcast at 3,300' AGL
Temperature
C / 48°F
Dewpoint
C / 46°F
Humidity
94%
Altimeter
30.24" Hg
Pressure
1024.02 hPa
Current Rain
0.01"
Previous

59 mins ago

KAFP 221120Z AUTO 04004KT 10SM -DZ BKN030 OVC037 09/08 A3024 RMK AO2 T00900077
Observed
Feb-22 @ 11:20 UTC
Wind
  • 040° at 4 KTS
Visibility
10 SM
Flight Rules
MVFR
Conditions
Light Drizzle
Cloud Levels
  • Broken at 3,000' AGL
  • Overcast at 3,700' AGL
Temperature
C / 48°F
Dewpoint
C / 46°F
Humidity
94%
Altimeter
30.24" Hg
Pressure
1024.02 hPa
Previous

1 hour ago

KAFP 221100Z AUTO 00000KT 7SM RA OVC027 09/08 A3024 RMK AO2 T00900079
Observed
Feb-22 @ 11:00 UTC
Visibility
7 SM
Flight Rules
MVFR
Conditions
Rain
Cloud Levels
  • Overcast at 2,700' AGL
Temperature
C / 48°F
Dewpoint
C / 46°F
Humidity
94%
Altimeter
30.24" Hg
Pressure
1024.02 hPa